Time;durP1;ratioP1;P1;durP2;ratioP2;P2;SDS_P1;SDS_P2;PMS_P1;PMS_P2;Temp;Humidity;BMP_temperature;BMP_pressure;BME280_temperature;BME280_humidity;BME280_pressure;Samples;Min_cycle;Max_cycle;Signal;HPM_P1;HPM_P2
2023/10/02 00:00:42;;;;;;;15.98;4.90;;;14.30;99.90;;;;;;5012223;28;20072;-61
2023/10/02 00:03:10;;;;;;;17.92;5.60;;;14.30;99.90;;;;;;5026050;28;20041;-61
2023/10/02 00:05:50;;;;;;;17.77;5.63;;;14.30;99.90;;;;;;5027708;28;20049;-61
2023/10/02 00:11:37;;;;;;;18.67;5.40;;;14.20;99.90;;;;;;5028522;28;20405;-61
2023/10/02 00:14:23;;;;;;;17.25;4.75;;;14.30;99.90;;;;;;5061885;28;20045;-61
2023/10/02 00:19:57;;;;;;;15.90;5.45;;;14.30;99.90;;;;;;5027001;28;20054;-62
2023/10/02 00:22:37;;;;;;;17.27;5.50;;;14.30;99.90;;;;;;5025759;28;20493;-61
2023/10/02 00:25:16;;;;;;;13.27;5.18;;;14.30;99.90;;;;;;5014347;28;20072;-60
2023/10/02 00:27:46;;;;;;;16.65;5.85;;;14.30;99.90;;;;;;5021705;28;20041;-62
2023/10/02 00:30:15;;;;;;;21.38;5.80;;;14.20;99.90;;;;;;5026812;28;20049;-60
2023/10/02 00:32:46;;;;;;;18.77;5.07;;;14.20;99.90;;;;;;5046624;28;20406;-61
2023/10/02 00:35:14;;;;;;;15.20;5.28;;;14.20;99.90;;;;;;5047721;28;20064;-61
2023/10/02 00:37:52;;;;;;;17.42;5.63;;;14.20;99.90;;;;;;5042425;28;20042;-61
2023/10/02 00:40:30;;;;;;;22.27;5.22;;;14.20;99.90;;;;;;5021009;28;20538;-61
2023/10/02 00:43:33;;;;;;;16.10;5.30;;;14.10;99.90;;;;;;5011955;28;20045;-60
2023/10/02 00:45:58;;;;;;;13.52;5.20;;;14.10;99.90;;;;;;5027506;28;20040;-61
2023/10/02 00:48:30;;;;;;;15.73;5.03;;;14.10;99.90;;;;;;5026229;28;20045;-61
2023/10/02 00:51:05;;;;;;;17.25;5.07;;;14.10;99.90;;;;;;5026246;28;20045;-59
2023/10/02 00:53:40;;;;;;;14.55;4.93;;;14.20;99.90;;;;;;5027046;28;20056;-60
2023/10/02 00:56:24;;;;;;;12.50;4.88;;;14.20;99.90;;;;;;5014540;28;20042;-60
2023/10/02 00:59:14;;;;;;;16.63;5.38;;;14.20;99.90;;;;;;5029250;28;20037;-60
2023/10/02 01:01:44;;;;;;;17.42;6.65;;;14.20;99.90;;;;;;5048883;28;20049;-62
2023/10/02 01:04:24;;;;;;;16.63;5.40;;;14.20;99.90;;;;;;5022257;28;20060;-59
2023/10/02 01:06:57;;;;;;;;;;;14.20;99.90;;;;;;5045024;28;20060;-59
2023/10/02 01:09:28;;;;;;;11.23;4.50;;;14.30;99.90;;;;;;5037790;28;19932;-60
2023/10/02 01:11:57;;;;;;;20.48;5.10;;;14.30;99.90;;;;;;5014666;28;20060;-60
2023/10/02 01:17:17;;;;;;;15.48;5.13;;;14.40;99.90;;;;;;5030558;28;20057;-60
2023/10/02 01:19:54;;;;;;;14.90;5.00;;;14.40;99.90;;;;;;5027935;28;20056;-60
2023/10/02 01:22:31;;;;;;;12.75;5.13;;;14.40;99.90;;;;;;5045289;28;20061;-60
2023/10/02 01:25:14;;;;;;;17.23;5.30;;;14.40;99.90;;;;;;5027347;28;20049;-59
2023/10/02 01:27:50;;;;;;;27.30;6.07;;;14.40;99.90;;;;;;5029503;28;20505;-60
2023/10/02 01:30:21;;;;;;;17.73;5.13;;;14.40;99.90;;;;;;5027167;28;20048;-59
2023/10/02 01:35:49;;;;;;;18.85;5.05;;;14.40;99.90;;;;;;5033680;28;20045;-60
2023/10/02 01:38:31;;;;;;;15.45;5.18;;;14.40;99.90;;;;;;5035405;28;20396;-61
2023/10/02 01:41:10;;;;;;;15.13;4.10;;;14.40;99.90;;;;;;5052210;28;20045;-61
2023/10/02 01:43:45;;;;;;;18.00;4.90;;;14.40;99.90;;;;;;5037260;28;20033;-60
2023/10/02 01:46:17;;;;;;;17.38;5.05;;;14.40;99.90;;;;;;5030018;28;20720;-60
2023/10/02 01:48:50;;;;;;;16.23;5.63;;;14.40;99.90;;;;;;5031286;28;20049;-61
2023/10/02 01:51:21;;;;;;;24.58;5.32;;;14.40;99.90;;;;;;5032359;28;20060;-60
2023/10/02 01:53:57;;;;;;;15.80;5.00;;;14.40;99.90;;;;;;5033129;28;20527;-60
2023/10/02 01:56:30;;;;;;;20.20;5.32;;;14.50;99.90;;;;;;5032380;28;20057;-60
2023/10/02 01:59:09;;;;;;;13.43;5.75;;;14.40;99.90;;;;;;5031506;28;20046;-61
2023/10/02 02:01:52;;;;;;;13.18;4.50;;;14.40;99.90;;;;;;5041788;28;20484;-61
2023/10/02 02:04:32;;;;;;;17.55;4.82;;;14.40;99.90;;;;;;5013579;28;20049;-61
2023/10/02 02:07:02;;;;;;;;;;;14.40;99.90;;;;;;5013647;28;20536;-61
2023/10/02 02:09:33;;;;;;;15.60;3.95;;;14.40;99.90;;;;;;5011397;28;19928;-61
2023/10/02 02:12:07;;;;;;;16.92;4.50;;;14.30;99.90;;;;;;5013517;28;20490;-61
2023/10/02 02:14:52;;;;;;;17.40;4.93;;;14.40;99.90;;;;;;5031319;28;20048;-61
2023/10/02 02:17:27;;;;;;;17.65;4.78;;;14.40;99.90;;;;;;5032871;28;20056;-60
2023/10/02 02:20:10;;;;;;;14.30;4.20;;;14.30;99.90;;;;;;5032764;28;20096;-59
2023/10/02 02:22:39;;;;;;;15.50;4.35;;;14.30;99.90;;;;;;5045173;28;20534;-59
2023/10/02 02:25:07;;;;;;;17.23;4.80;;;14.30;99.90;;;;;;5032705;28;20072;-59
2023/10/02 02:27:44;;;;;;;19.15;5.38;;;14.30;99.90;;;;;;5031306;28;20408;-59
2023/10/02 02:30:17;;;;;;;15.23;4.20;;;14.30;99.90;;;;;;5013373;28;20054;-61
2023/10/02 02:32:52;;;;;;;13.55;4.07;;;14.30;99.90;;;;;;5043903;28;20045;-61
2023/10/02 02:35:21;;;;;;;15.15;4.40;;;14.20;99.90;;;;;;5033581;28;20046;-60
2023/10/02 02:37:52;;;;;;;18.92;4.35;;;14.20;99.90;;;;;;5031497;28;20520;-59
2023/10/02 02:40:23;;;;;;;19.45;5.32;;;14.20;99.90;;;;;;5032717;28;20052;-59
2023/10/02 02:42:52;;;;;;;13.40;4.88;;;14.20;99.90;;;;;;5031845;28;20041;-61
2023/10/02 02:45:28;;;;;;;18.13;4.53;;;14.20;99.90;;;;;;5032386;28;20045;-60
2023/10/02 02:48:04;;;;;;;22.55;4.70;;;14.10;99.90;;;;;;5031296;28;20049;-61
2023/10/02 02:50:40;;;;;;;18.15;4.57;;;14.10;99.90;;;;;;5032274;28;20045;-61
2023/10/02 02:53:16;;;;;;;19.13;4.88;;;14.10;99.90;;;;;;5030908;28;20045;-62
2023/10/02 02:55:45;;;;;;;19.13;4.57;;;14.10;99.90;;;;;;5031007;28;20052;-61
2023/10/02 02:58:13;;;;;;;13.13;4.78;;;14.10;99.90;;;;;;5030847;28;20038;-61
2023/10/02 03:00:41;;;;;;;18.80;5.35;;;14.00;99.90;;;;;;5039800;28;20069;-61
2023/10/02 03:05:59;;;;;;;20.38;4.72;;;14.00;99.90;;;;;;5032184;28;20361;-60
2023/10/02 03:08:41;;;;;;;13.82;4.25;;;13.90;99.90;;;;;;5032044;28;20046;-59
2023/10/02 03:11:10;;;;;;;13.23;4.95;;;13.90;99.90;;;;;;5032074;28;20053;-60
2023/10/02 03:13:41;;;;;;;19.10;4.95;;;13.80;99.90;;;;;;5031730;28;20056;-61
2023/10/02 03:16:13;;;;;;;13.70;4.85;;;13.80;99.90;;;;;;5031847;28;20382;-60
2023/10/02 03:18:44;;;;;;;15.43;4.60;;;13.80;99.90;;;;;;5031506;28;20042;-59
2023/10/02 03:21:23;;;;;;;16.65;5.53;;;13.70;99.90;;;;;;5030742;28;20473;-59
2023/10/02 03:23:58;;;;;;;15.70;4.25;;;13.70;99.90;;;;;;5030347;28;20045;-59
2023/10/02 03:26:27;;;;;;;15.27;5.05;;;13.70;99.90;;;;;;5031628;28;20041;-59
2023/10/02 03:29:03;;;;;;;12.73;4.72;;;13.70;99.90;;;;;;5031533;28;20049;-59
2023/10/02 03:31:51;;;;;;;20.80;5.53;;;13.60;99.90;;;;;;5040130;28;20084;-59
2023/10/02 03:34:27;;;;;;;18.80;4.47;;;13.60;99.90;;;;;;5032207;28;20045;-59
2023/10/02 03:37:08;;;;;;;17.42;5.35;;;13.60;99.90;;;;;;5031021;28;20057;-60
2023/10/02 03:39:52;;;;;;;15.48;4.88;;;13.60;99.90;;;;;;5031198;28;20046;-60
2023/10/02 03:42:31;;;;;;;16.88;4.75;;;13.60;99.90;;;;;;5031519;28;20405;-60
2023/10/02 03:45:02;;;;;;;17.80;5.15;;;13.60;99.90;;;;;;5030247;28;20056;-61
2023/10/02 03:47:33;;;;;;;15.82;4.63;;;13.60;99.90;;;;;;5030185;28;20412;-60
2023/10/02 03:50:04;;;;;;;11.52;4.40;;;13.60;99.90;;;;;;5031429;28;20049;-60
2023/10/02 03:52:33;;;;;;;24.42;5.85;;;13.60;99.90;;;;;;5030890;28;20045;-60
2023/10/02 03:55:15;;;;;;;17.25;5.00;;;13.60;99.90;;;;;;5031051;28;20470;-60
2023/10/02 03:57:49;;;;;;;15.90;5.20;;;13.60;99.90;;;;;;5031000;28;20128;-60
2023/10/02 04:00:19;;;;;;;15.13;5.05;;;13.60;99.90;;;;;;5031702;28;20049;-60
2023/10/02 04:02:49;;;;;;;14.32;4.95;;;13.60;99.90;;;;;;5045012;28;20049;-60
2023/10/02 04:08:21;;;;;;;20.40;4.63;;;13.50;99.90;;;;;;5030917;28;20046;-60
2023/10/02 04:10:55;;;;;;;15.23;4.72;;;13.50;99.90;;;;;;5030758;28;20485;-61
2023/10/02 04:13:29;;;;;;;18.42;4.70;;;13.50;99.90;;;;;;5031238;28;20397;-60
2023/10/02 04:16:28;;;;;;;15.93;4.53;;;13.50;99.90;;;;;;5030854;28;20046;-61
2023/10/02 04:18:49;;;;;;;15.15;4.25;;;13.50;99.90;;;;;;5030898;28;20052;-60
2023/10/02 04:21:22;;;;;;;23.35;5.32;;;13.40;99.90;;;;;;5033131;28;20481;-60
2023/10/02 04:23:56;;;;;;;12.85;4.03;;;13.40;99.90;;;;;;5031046;28;20056;-60
2023/10/02 04:26:28;;;;;;;17.30;4.68;;;13.40;99.90;;;;;;5031044;28;20049;-60
2023/10/02 04:29:09;;;;;;;13.32;4.55;;;13.40;99.90;;;;;;5030857;28;20057;-60
2023/10/02 04:31:41;;;;;;;16.85;4.50;;;13.40;99.90;;;;;;5041598;28;20033;-62
2023/10/02 04:34:29;;;;;;;15.68;4.57;;;13.30;99.90;;;;;;5038306;28;20056;-61
2023/10/02 04:36:57;;;;;;;21.35;5.15;;;13.30;99.90;;;;;;5036945;28;20049;-61
2023/10/02 04:42:11;;;;;;;17.77;5.05;;;13.30;99.90;;;;;;5034693;28;20049;-60
2023/10/02 04:44:44;;;;;;;22.75;5.03;;;13.20;99.90;;;;;;5014914;28;20050;-60
2023/10/02 04:47:20;;;;;;;18.38;4.97;;;13.30;99.90;;;;;;5012953;28;20049;-61
2023/10/02 04:52:56;;;;;;;17.08;5.25;;;13.20;99.90;;;;;;5014051;28;20053;-60
2023/10/02 04:55:49;;;;;;;18.70;5.55;;;13.20;99.90;;;;;;5033161;28;20504;-61
2023/10/02 04:58:19;;;;;;;17.38;4.80;;;13.20;99.90;;;;;;5035387;28;20257;-60
2023/10/02 05:03:49;;;;;;;11.60;4.45;;;13.20;99.90;;;;;;5017302;28;20060;-61
2023/10/02 05:06:39;;;;;;;17.27;4.55;;;13.10;99.90;;;;;;5027659;28;20041;-61
2023/10/02 05:11:52;;;;;;;15.77;4.47;;;13.10;99.90;;;;;;5027856;28;20041;-61
2023/10/02 05:14:28;;;;;;;21.23;4.90;;;13.10;99.90;;;;;;5027308;28;20042;-61
2023/10/02 05:17:17;;;;;;;14.50;4.28;;;13.10;99.90;;;;;;5029455;28;20045;-61
2023/10/02 05:19:57;;;;;;;20.20;4.80;;;13.10;99.90;;;;;;5011324;28;20060;-60
2023/10/02 05:22:30;;;;;;;20.10;4.53;;;13.10;99.90;;;;;;5013441;28;20045;-61
2023/10/02 05:25:04;;;;;;;17.73;4.75;;;13.10;99.90;;;;;;5025403;28;20049;-60
2023/10/02 05:27:37;;;;;;;15.23;4.50;;;13.10;99.90;;;;;;5015692;28;20045;-60
2023/10/02 05:30:12;;;;;;;16.15;4.78;;;13.10;99.90;;;;;;5048701;28;20068;-60
2023/10/02 05:32:41;;;;;;;16.48;4.22;;;13.10;99.90;;;;;;5040909;28;20050;-61
2023/10/02 05:37:45;;;;;;;20.30;4.53;;;13.10;99.90;;;;;;5027463;28;20049;-61
2023/10/02 05:43:10;;;;;;;17.63;4.95;;;13.10;99.90;;;;;;5025577;28;20049;-61
2023/10/02 05:51:08;;;;;;;15.43;5.00;;;13.10;99.90;;;;;;5030423;28;20638;-59
2023/10/02 05:53:37;;;;;;;20.25;4.75;;;13.10;99.90;;;;;;5029637;28;20049;-61
2023/10/02 05:56:05;;;;;;;16.98;4.30;;;13.10;99.90;;;;;;5030018;28;20045;-59
2023/10/02 05:58:36;;;;;;;;;;;13.00;99.90;;;;;;5029890;28;20045;-60
2023/10/02 06:01:06;;;;;;;19.10;4.47;;;13.00;99.90;;;;;;5032056;28;20265;-60
2023/10/02 06:03:36;;;;;;;16.05;4.20;;;13.00;99.90;;;;;;5024273;28;20046;-59
2023/10/02 06:06:17;;;;;;;15.98;4.43;;;13.00;99.90;;;;;;5023242;28;20065;-60
2023/10/02 06:09:43;;;;;;;15.20;4.75;;;13.00;99.90;;;;;;5029081;28;20512;-59
2023/10/02 06:12:02;;;;;;;15.60;4.50;;;13.00;99.90;;;;;;5027172;28;20428;-59
2023/10/02 06:14:38;;;;;;;16.02;5.28;;;13.00;99.90;;;;;;5046308;28;20067;-60
2023/10/02 06:17:11;;;;;;;18.33;4.55;;;12.90;99.90;;;;;;5047950;28;20052;-59
2023/10/02 06:19:43;;;;;;;18.48;5.15;;;12.90;99.90;;;;;;5020129;28;20498;-60
2023/10/02 06:22:13;;;;;;;17.95;4.80;;;12.90;99.90;;;;;;5027960;28;20041;-60
2023/10/02 06:24:41;;;;;;;;;;;12.80;99.90;;;;;;5028704;28;20042;-60
2023/10/02 06:27:14;;;;;;;18.67;4.28;;;12.80;99.90;;;;;;5029343;28;19925;-60
2023/10/02 06:29:47;;;;;;;23.42;5.13;;;12.80;99.90;;;;;;5025778;28;20049;-60
2023/10/02 06:32:19;;;;;;;13.32;4.32;;;12.80;99.90;;;;;;5021669;28;20405;-60
2023/10/02 06:34:50;;;;;;;20.25;4.40;;;12.80;99.90;;;;;;5040442;28;20042;-60
2023/10/02 06:37:24;;;;;;;17.95;4.72;;;12.80;99.90;;;;;;5027477;28;20061;-60
2023/10/02 06:40:05;;;;;;;17.20;5.50;;;12.80;99.90;;;;;;5024476;28;20045;-61
2023/10/02 06:42:34;;;;;;;26.75;5.22;;;12.90;99.90;;;;;;5044022;28;20053;-61
2023/10/02 06:45:11;;;;;;;16.35;4.38;;;12.90;99.90;;;;;;5024791;28;20447;-60
2023/10/02 06:47:39;;;;;;;19.73;4.78;;;12.90;99.90;;;;;;5013958;28;20069;-60
2023/10/02 06:52:59;;;;;;;15.10;4.78;;;13.00;99.90;;;;;;5021683;28;20060;-61
2023/10/02 06:55:29;;;;;;;22.05;4.85;;;12.90;99.90;;;;;;5020358;28;20056;-60
2023/10/02 06:57:58;;;;;;;16.13;4.55;;;13.00;99.90;;;;;;5028069;28;20129;-60
2023/10/02 07:00:54;;;;;;;11.20;4.35;;;13.00;99.90;;;;;;5027614;28;20049;-61
2023/10/02 07:03:15;;;;;;;20.92;5.30;;;13.00;99.90;;;;;;5024099;28;21432;-61
2023/10/02 07:05:43;;;;;;;15.40;4.47;;;13.10;99.90;;;;;;5025157;28;20065;-60
2023/10/02 07:08:26;;;;;;;15.50;4.82;;;13.10;99.90;;;;;;5024562;28;20045;-60
2023/10/02 07:10:58;;;;;;;13.93;4.30;;;13.20;99.90;;;;;;5018648;28;20489;-60
2023/10/02 07:13:25;;;;;;;19.35;4.53;;;13.20;99.90;;;;;;5031980;28;20496;-60
2023/10/02 07:15:57;;;;;;;16.95;4.25;;;13.30;99.90;;;;;;5045071;28;20412;-61
2023/10/02 07:18:45;;;;;;;17.73;4.25;;;13.30;99.90;;;;;;5033903;28;20057;-61
2023/10/02 07:21:16;;;;;;;13.18;4.15;;;13.40;99.90;;;;;;5024964;28;20615;-62
2023/10/02 07:23:45;;;;;;;16.95;4.15;;;13.40;99.90;;;;;;5025455;28;20050;-61
2023/10/02 07:26:14;;;;;;;18.42;4.85;;;13.40;99.90;;;;;;5008999;28;20061;-59
2023/10/02 07:28:50;;;;;;;18.33;5.35;;;13.40;99.90;;;;;;5024727;28;20516;-60
2023/10/02 07:31:19;;;;;;;19.42;4.70;;;13.50;99.90;;;;;;5014997;28;20064;-59
2023/10/02 07:33:47;;;;;;;22.90;5.88;;;13.50;99.90;;;;;;5044687;28;20037;-59
2023/10/02 07:36:15;;;;;;;13.80;4.70;;;13.50;99.90;;;;;;5048176;28;20041;-59
2023/10/02 07:38:46;;;;;;;22.00;5.22;;;13.50;99.90;;;;;;5034974;28;20038;-59
2023/10/02 07:41:25;;;;;;;18.25;4.38;;;13.60;99.90;;;;;;5025532;28;20041;-59
2023/10/02 07:44:06;;;;;;;17.58;4.80;;;13.60;99.90;;;;;;5028052;28;20068;-59
2023/10/02 07:46:36;;;;;;;17.38;4.15;;;13.60;99.90;;;;;;5026521;28;20053;-60
2023/10/02 07:49:05;;;;;;;14.13;4.15;;;13.70;99.90;;;;;;5027861;28;20052;-59
2023/10/02 07:51:36;;;;;;;11.93;5.05;;;13.70;99.90;;;;;;5028245;28;20048;-59
2023/10/02 07:54:07;;;;;;;21.58;4.50;;;13.70;99.90;;;;;;5027736;28;20612;-59
2023/10/02 07:56:41;;;;;;;17.15;4.82;;;13.70;99.90;;;;;;5018978;28;20046;-60
2023/10/02 07:59:10;;;;;;;14.93;5.10;;;13.80;99.90;;;;;;5024134;28;20060;-59
2023/10/02 08:01:39;;;;;;;23.38;5.13;;;13.80;99.90;;;;;;5028493;28;20057;-59
2023/10/02 08:04:07;;;;;;;20.95;4.68;;;13.80;99.90;;;;;;5032946;28;20045;-59
2023/10/02 08:06:37;;;;;;;15.65;5.10;;;13.80;99.90;;;;;;5027321;28;20045;-59
2023/10/02 08:11:59;;;;;;;20.35;4.78;;;13.90;99.90;;;;;;5021694;28;20056;-59
2023/10/02 08:14:40;;;;;;;18.17;4.80;;;13.90;99.90;;;;;;5040904;28;20053;-59
2023/10/02 08:17:21;;;;;;;17.80;4.70;;;14.00;99.90;;;;;;5051506;28;20290;-59
2023/10/02 08:19:59;;;;;;;17.30;4.63;;;14.00;99.90;;;;;;5031827;28;20056;-59
2023/10/02 08:22:35;;;;;;;15.57;4.60;;;14.00;99.90;;;;;;5036591;28;20041;-59
2023/10/02 08:25:13;;;;;;;15.65;4.05;;;14.00;99.90;;;;;;5051416;28;20056;-59
2023/10/02 08:27:44;;;;;;;19.38;4.32;;;14.10;99.90;;;;;;5023270;28;20045;-58
2023/10/02 08:33:06;;;;;;;18.70;4.60;;;14.10;99.90;;;;;;5028421;28;19921;-58
2023/10/02 08:35:46;;;;;;;17.75;4.35;;;14.10;99.90;;;;;;5031760;28;20049;-59
2023/10/02 08:38:24;;;;;;;14.82;3.95;;;14.10;99.90;;;;;;5031270;28;20049;-59
2023/10/02 08:41:02;;;;;;;11.23;3.72;;;14.20;99.90;;;;;;5031241;28;20231;-58
2023/10/02 08:43:52;;;;;;;18.40;4.07;;;14.20;99.90;;;;;;5030238;28;20060;-59
2023/10/02 08:46:23;;;;;;;10.38;3.55;;;14.20;99.90;;;;;;5031076;28;20052;-60
2023/10/02 08:48:54;;;;;;;15.95;3.80;;;14.30;99.90;;;;;;5040234;28;20806;-59
2023/10/02 08:51:32;;;;;;;19.50;3.05;;;14.30;99.90;;;;;;5032839;28;20045;-59
2023/10/02 08:54:05;;;;;;;19.05;3.58;;;14.40;99.90;;;;;;5031022;28;20061;-59
2023/10/02 08:56:44;;;;;;;19.35;4.00;;;14.40;99.90;;;;;;5025201;28;20481;-59
2023/10/02 08:59:35;;;;;;;19.00;3.47;;;14.40;99.90;;;;;;5030417;28;20057;-59
2023/10/02 09:02:15;;;;;;;20.20;3.25;;;14.40;99.90;;;;;;5028204;28;20535;-58
2023/10/02 09:04:53;;;;;;;21.98;4.05;;;14.50;99.90;;;;;;5028022;28;20049;-58
2023/10/02 09:07:24;;;;;;;17.27;3.92;;;14.60;99.90;;;;;;5026346;28;20469;-58
2023/10/02 09:10:17;;;;;;;23.00;4.32;;;14.60;99.90;;;;;;5029409;28;20050;-58
2023/10/02 09:12:50;;;;;;;15.02;3.35;;;14.70;99.90;;;;;;5026967;28;20044;-58
2023/10/02 09:15:30;;;;;;;16.92;4.13;;;14.80;99.90;;;;;;5030704;28;20366;-58
2023/10/02 09:18:19;;;;;;;19.38;4.53;;;14.90;99.90;;;;;;5028401;28;20512;-59
2023/10/02 09:21:13;;;;;;;22.52;4.22;;;15.00;99.90;;;;;;5030729;28;20401;-59
2023/10/02 09:23:49;;;;;;;15.73;3.80;;;15.10;99.90;;;;;;5030303;28;20057;-59
2023/10/02 09:26:23;;;;;;;14.45;3.05;;;15.30;99.90;;;;;;5029964;28;20044;-59
2023/10/02 09:29:00;;;;;;;17.90;3.33;;;15.40;99.90;;;;;;5027197;28;20049;-62
2023/10/02 09:31:33;;;;;;;15.10;4.03;;;15.50;99.90;;;;;;5029522;28;20056;-62
2023/10/02 09:34:10;;;;;;;16.00;3.50;;;15.50;99.90;;;;;;5010671;28;20057;-61
2023/10/02 09:37:11;;;;;;;13.80;3.15;;;15.60;99.90;;;;;;5007247;28;20042;-62
2023/10/02 09:40:03;;;;;;;17.23;3.38;;;15.60;99.90;;;;;;5008514;28;20046;-62
2023/10/02 09:42:33;;;;;;;15.77;3.30;;;15.60;99.90;;;;;;5015873;28;20041;-62
2023/10/02 09:45:08;;;;;;;13.48;3.97;;;15.50;99.90;;;;;;5030471;28;20402;-61
2023/10/02 09:47:37;;;;;;;16.77;3.35;;;15.50;99.90;;;;;;5036488;28;20531;-62
2023/10/02 09:50:26;;;;;;;17.23;4.25;;;15.50;99.90;;;;;;5032361;28;20540;-61
2023/10/02 09:53:08;;;;;;;28.38;4.43;;;15.50;99.90;;;;;;5029931;28;20507;-62
2023/10/02 09:56:01;;;;;;;15.40;3.85;;;15.50;99.90;;;;;;5028700;28;20185;-62
2023/10/02 09:58:37;;;;;;;19.63;3.60;;;15.60;99.90;;;;;;5023729;28;20050;-62
2023/10/02 10:03:56;;;;;;;18.48;4.00;;;15.60;99.90;;;;;;5026603;28;20042;-62
2023/10/02 10:06:41;;;;;;;17.70;4.13;;;15.70;99.90;;;;;;5029100;28;20041;-62
2023/10/02 10:11:45;;;;;;;13.98;3.22;;;15.80;99.90;;;;;;5047711;28;20049;-61
2023/10/02 10:14:37;;;;;;;63.25;5.20;;;15.80;99.90;;;;;;5028775;28;20053;-62
2023/10/02 10:17:14;;;;;;;22.13;3.65;;;15.90;99.90;;;;;;5024118;28;20057;-63
2023/10/02 10:20:07;;;;;;;15.73;4.13;;;16.00;99.90;;;;;;5028087;28;20046;-62
2023/10/02 10:22:38;;;;;;;29.30;6.93;;;16.00;99.90;;;;;;5029236;28;20045;-62
2023/10/02 10:25:44;;;;;;;14.88;4.07;;;16.10;99.90;;;;;;5029450;28;20125;-61
2023/10/02 10:28:26;;;;;;;16.13;3.67;;;16.20;99.90;;;;;;5030195;28;20495;-62
2023/10/02 10:31:01;;;;;;;11.55;3.20;;;16.20;99.90;;;;;;5045107;28;20048;-62
2023/10/02 10:33:33;;;;;;;15.68;3.17;;;16.20;99.90;;;;;;5029315;28;20052;-62
2023/10/02 10:36:36;;;;;;;11.73;2.28;;;16.30;99.90;;;;;;5029442;28;20053;-62
2023/10/02 10:39:30;;;;;;;15.60;3.70;;;16.40;99.90;;;;;;5028551;28;20653;-62
2023/10/02 10:42:00;;;;;;;10.40;2.60;;;16.50;99.90;;;;;;5028782;28;20061;-62
2023/10/02 10:44:33;;;;;;;11.75;2.50;;;16.70;99.90;;;;;;5014270;28;20053;-61
2023/10/02 10:47:03;;;;;;;10.82;2.80;;;16.80;99.90;;;;;;5026679;28;20512;-62
2023/10/02 10:49:54;;;;;;;8.48;2.95;;;16.90;99.90;;;;;;5030790;28;20050;-63
2023/10/02 10:52:36;;;;;;;10.98;2.45;;;17.00;99.90;;;;;;5045287;28;20045;-63
2023/10/02 10:55:32;;;;;;;11.75;2.75;;;17.10;99.90;;;;;;5028977;28;20496;-62
2023/10/02 10:58:01;;;;;;;9.50;2.80;;;17.20;99.90;;;;;;5026560;28;20481;-63
2023/10/02 11:00:39;;;;;;;10.05;2.65;;;17.20;99.90;;;;;;5027459;28;20053;-62
2023/10/02 11:03:16;;;;;;;15.35;3.08;;;17.30;99.90;;;;;;5028003;28;20053;-62
2023/10/02 11:05:44;;;;;;;12.48;3.35;;;17.40;99.90;;;;;;5029004;28;20558;-62
2023/10/02 11:08:28;;;;;;;10.85;2.67;;;17.40;99.90;;;;;;5028843;28;20072;-62
2023/10/02 11:11:11;;;;;;;12.95;3.17;;;17.50;99.90;;;;;;5028952;28;20041;-62
2023/10/02 11:13:50;;;;;;;10.48;3.20;;;17.60;99.90;;;;;;5020817;28;20068;-62
2023/10/02 11:16:36;;;;;;;11.25;3.08;;;17.60;99.90;;;;;;5028586;28;20041;-62
2023/10/02 11:19:21;;;;;;;16.73;2.90;;;17.70;99.90;;;;;;5040770;28;20051;-62
2023/10/02 11:22:22;;;;;;;13.60;3.15;;;17.90;99.90;;;;;;5038513;28;20042;-64
2023/10/02 11:24:53;;;;;;;12.65;3.15;;;18.00;99.90;;;;;;5021958;28;20069;-63
2023/10/02 11:27:22;;;;;;;12.77;2.97;;;18.20;99.90;;;;;;5028058;28;20060;-64
2023/10/02 11:30:01;;;;;;;13.60;2.97;;;18.20;99.90;;;;;;5008590;28;20078;-62
2023/10/02 11:32:53;;;;;;;13.18;3.03;;;18.30;99.90;;;;;;5025424;28;20052;-63
2023/10/02 11:35:28;;;;;;;10.57;2.72;;;18.30;99.90;;;;;;5026873;28;20394;-62
2023/10/02 11:37:57;;;;;;;15.43;3.00;;;18.40;99.90;;;;;;5033023;28;20044;-63
2023/10/02 11:40:28;;;;;;;11.02;3.00;;;18.40;99.90;;;;;;5037340;28;20049;-64
2023/10/02 11:42:59;;;;;;;12.90;3.00;;;18.30;99.90;;;;;;5026834;28;20037;-63
2023/10/02 11:45:32;;;;;;;13.95;3.20;;;18.20;99.90;;;;;;5028132;28;20061;-63
2023/10/02 11:48:00;;;;;;;18.85;3.47;;;18.10;99.90;;;;;;5024756;28;20414;-62
2023/10/02 11:50:28;;;;;;;17.23;3.85;;;17.90;99.90;;;;;;5027298;28;20049;-62
2023/10/02 11:52:56;;;;;;;13.93;3.08;;;17.80;99.90;;;;;;5027947;28;20049;-63
2023/10/02 11:55:24;;;;;;;15.32;3.47;;;17.70;99.90;;;;;;5028012;28;20049;-63
2023/10/02 11:57:52;;;;;;;11.48;2.47;;;17.60;99.90;;;;;;5023811;28;20045;-62
2023/10/02 12:00:22;;;;;;;10.43;2.55;;;17.60;99.90;;;;;;5008243;28;20042;-63
2023/10/02 12:02:50;;;;;;;;;;;17.50;99.90;;;;;;5027310;28;20045;-63
2023/10/02 12:05:19;;;;;;;15.27;2.67;;;17.40;99.90;;;;;;5027941;28;19933;-63
2023/10/02 12:07:47;;;;;;;10.60;2.45;;;17.40;99.90;;;;;;5027902;28;20041;-63
2023/10/02 12:10:15;;;;;;;13.40;3.40;;;17.30;99.90;;;;;;5027767;28;20046;-63
2023/10/02 12:12:47;;;;;;;11.15;2.28;;;17.30;99.90;;;;;;5025810;28;20053;-62
2023/10/02 12:15:15;;;;;;;12.30;2.95;;;17.20;99.90;;;;;;5008304;28;20065;-63
2023/10/02 12:17:44;;;;;;;20.13;3.80;;;17.10;99.90;;;;;;5017084;28;20057;-62
2023/10/02 12:20:16;;;;;;;21.42;4.40;;;17.10;99.90;;;;;;5027810;28;20042;-63
2023/10/02 12:22:47;;;;;;;16.80;3.08;;;17.00;99.90;;;;;;5026698;28;20045;-63
2023/10/02 12:25:15;;;;;;;14.93;3.72;;;16.90;99.90;;;;;;5029857;28;20471;-63
2023/10/02 12:27:44;;;;;;;11.68;3.20;;;16.80;99.90;;;;;;5027784;28;20046;-63
2023/10/02 12:30:12;;;;;;;15.48;3.78;;;16.80;99.90;;;;;;5008398;28;20057;-63
2023/10/02 12:32:40;;;;;;;15.15;3.28;;;16.70;99.90;;;;;;5031283;28;20056;-62
2023/10/02 12:35:09;;;;;;;14.80;3.47;;;16.70;99.90;;;;;;5046435;28;20056;-63
2023/10/02 12:37:37;;;;;;;14.93;3.60;;;16.60;99.90;;;;;;5032529;28;20041;-63
2023/10/02 12:40:12;;;;;;;18.85;3.78;;;16.60;99.90;;;;;;5027429;28;20053;-63
2023/10/02 12:42:40;;;;;;;9.85;3.50;;;16.60;99.90;;;;;;5026543;28;20049;-63
2023/10/02 12:45:08;;;;;;;17.35;4.63;;;16.50;99.90;;;;;;5009823;28;20053;-63
2023/10/02 12:47:40;;;;;;;19.30;4.20;;;16.40;99.90;;;;;;5005560;28;20524;-63
2023/10/02 12:50:10;;;;;;;19.10;4.22;;;16.30;99.90;;;;;;5025665;28;20834;-63
2023/10/02 12:52:39;;;;;;;16.67;3.40;;;16.30;99.90;;;;;;5027435;28;20053;-63
2023/10/02 12:55:07;;;;;;;14.27;3.17;;;16.20;99.90;;;;;;5031181;28;20045;-64
2023/10/02 12:57:37;;;;;;;11.90;3.13;;;16.20;99.90;;;;;;5032778;28;20045;-63
2023/10/02 13:00:16;;;;;;;13.50;2.63;;;16.10;99.90;;;;;;5014982;28;20498;-62
2023/10/02 13:02:45;;;;;;;13.23;2.47;;;16.10;99.90;;;;;;5029266;28;20054;-62
2023/10/02 13:05:13;;;;;;;13.18;3.13;;;16.00;99.90;;;;;;5030769;28;20064;-62
2023/10/02 13:07:42;;;;;;;12.85;2.70;;;16.00;99.90;;;;;;5031054;28;20405;-63
2023/10/02 13:10:10;;;;;;;10.80;2.72;;;15.90;99.90;;;;;;5027889;28;20046;-63
2023/10/02 13:12:39;;;;;;;9.70;2.35;;;16.00;99.90;;;;;;5027835;28;20384;-62
2023/10/02 13:15:07;;;;;;;5.88;1.30;;;15.90;99.90;;;;;;5028420;28;20401;-61
2023/10/02 13:17:38;;;;;;;5.80;1.58;;;15.90;99.90;;;;;;5031777;28;20045;-62
2023/10/02 13:20:08;;;;;;;;;;;15.90;99.90;;;;;;5029163;28;20072;-62
2023/10/02 13:22:38;;;;;;;;;;;15.80;99.90;;;;;;5030991;28;19927;-61
2023/10/02 13:25:11;;;;;;;3.13;1.08;;;15.80;99.90;;;;;;5046801;28;19925;-61
2023/10/02 13:27:46;;;;;;;3.67;1.45;;;15.70;99.90;;;;;;5047019;28;20052;-61
2023/10/02 13:30:19;;;;;;;4.43;1.40;;;15.60;99.90;;;;;;5016457;28;20218;-61
2023/10/02 13:32:46;;;;;;;6.15;1.50;;;15.60;99.90;;;;;;5033544;28;20049;-61
2023/10/02 13:35:15;;;;;;;6.15;1.52;;;15.50;99.90;;;;;;5047540;28;20040;-62
2023/10/02 13:37:43;;;;;;;5.03;1.63;;;15.60;99.90;;;;;;5026416;28;20045;-62
2023/10/02 13:40:31;;;;;;;7.13;2.10;;;15.60;99.90;;;;;;5027183;28;20064;-61
2023/10/02 13:42:59;;;;;;;6.60;1.50;;;15.60;99.90;;;;;;5028343;28;20501;-61
2023/10/02 13:45:27;;;;;;;5.43;1.70;;;15.70;99.90;;;;;;5013766;28;20038;-62
2023/10/02 13:47:56;;;;;;;4.68;1.30;;;15.80;99.90;;;;;;5014276;28;20053;-61
2023/10/02 13:50:25;;;;;;;6.65;1.60;;;15.80;99.90;;;;;;5027361;28;20057;-63
2023/10/02 13:52:54;;;;;;;4.27;1.60;;;15.90;99.90;;;;;;5030213;28;20482;-61
2023/10/02 13:55:27;;;;;;;5.28;1.45;;;15.90;99.90;;;;;;5030232;28;20781;-61
2023/10/02 13:57:56;;;;;;;4.40;1.42;;;15.90;99.90;;;;;;5029921;28;20053;-62
2023/10/02 14:00:26;;;;;;;5.60;1.60;;;15.90;99.90;;;;;;5012376;28;20073;-61
2023/10/02 14:02:54;;;;;;;7.93;1.92;;;16.00;99.90;;;;;;5023742;28;20045;-62
2023/10/02 14:05:29;;;;;;;4.97;1.40;;;16.00;99.90;;;;;;5029349;28;20041;-61
2023/10/02 14:07:57;;;;;;;3.67;1.58;;;16.00;99.90;;;;;;5028415;28;20497;-61
2023/10/02 14:10:26;;;;;;;6.82;1.42;;;16.10;99.90;;;;;;5028772;28;20042;-62
2023/10/02 14:12:54;;;;;;;5.05;1.80;;;16.10;99.90;;;;;;5029169;28;20046;-63